sensor_id;sensor_type;location;lat;lon;timestamp;temperature;humidity
58339;DHT22;68636;52.704;6.536;2023-08-30T00:00:19;12.50;99.90
58339;DHT22;68636;52.704;6.536;2023-08-30T00:02:47;12.50;99.90
58339;DHT22;68636;52.704;6.536;2023-08-30T00:05:13;12.50;99.90
58339;DHT22;68636;52.704;6.536;2023-08-30T00:07:39;12.40;99.90
58339;DHT22;68636;52.704;6.536;2023-08-30T00:10:09;12.40;99.90
58339;DHT22;68636;52.704;6.536;2023-08-30T00:12:36;12.40;99.90
58339;DHT22;68636;52.704;6.536;2023-08-30T00:15:02;12.40;99.90
58339;DHT22;68636;52.704;6.536;2023-08-30T00:17:27;12.40;99.90
58339;DHT22;68636;52.704;6.536;2023-08-30T00:19:53;12.30;99.90
58339;DHT22;68636;52.704;6.536;2023-08-30T00:22:21;12.30;99.90
58339;DHT22;68636;52.704;6.536;2023-08-30T00:24:47;12.20;99.90
58339;DHT22;68636;52.704;6.536;2023-08-30T00:27:13;12.20;99.90
58339;DHT22;68636;52.704;6.536;2023-08-30T00:29:39;12.20;99.90
58339;DHT22;68636;52.704;6.536;2023-08-30T00:32:05;12.20;99.90
58339;DHT22;68636;52.704;6.536;2023-08-30T00:34:30;12.20;99.90
58339;DHT22;68636;52.704;6.536;2023-08-30T00:36:56;12.20;99.90
58339;DHT22;68636;52.704;6.536;2023-08-30T00:39:22;12.20;99.90
58339;DHT22;68636;52.704;6.536;2023-08-30T00:41:48;12.10;99.90
58339;DHT22;68636;52.704;6.536;2023-08-30T00:44:13;12.20;99.90
58339;DHT22;68636;52.704;6.536;2023-08-30T00:46:39;12.20;99.90
58339;DHT22;68636;52.704;6.536;2023-08-30T00:49:05;12.10;99.90
58339;DHT22;68636;52.704;6.536;2023-08-30T00:51:32;12.10;99.90
58339;DHT22;68636;52.704;6.536;2023-08-30T00:53:59;12.10;99.90
58339;DHT22;68636;52.704;6.536;2023-08-30T00:56:26;12.10;99.90
58339;DHT22;68636;52.704;6.536;2023-08-30T00:58:53;12.10;99.90
58339;DHT22;68636;52.704;6.536;2023-08-30T01:01:19;12.10;99.90
58339;DHT22;68636;52.704;6.536;2023-08-30T01:03:45;12.10;99.90
58339;DHT22;68636;52.704;6.536;2023-08-30T01:06:11;12.10;99.90
58339;DHT22;68636;52.704;6.536;2023-08-30T01:08:40;12.20;99.90
58339;DHT22;68636;52.704;6.536;2023-08-30T01:14:05;12.30;99.90
58339;DHT22;68636;52.704;6.536;2023-08-30T01:16:35;12.40;99.90
58339;DHT22;68636;52.704;6.536;2023-08-30T01:19:17;12.50;99.90
58339;DHT22;68636;52.704;6.536;2023-08-30T01:22:03;12.50;99.90
58339;DHT22;68636;52.704;6.536;2023-08-30T01:24:44;12.50;99.90
58339;DHT22;68636;52.704;6.536;2023-08-30T01:27:11;12.60;99.90
58339;DHT22;68636;52.704;6.536;2023-08-30T01:29:40;12.60;99.90
58339;DHT22;68636;52.704;6.536;2023-08-30T01:32:09;12.60;99.90
58339;DHT22;68636;52.704;6.536;2023-08-30T01:34:38;12.60;99.90
58339;DHT22;68636;52.704;6.536;2023-08-30T01:37:08;12.60;99.90
58339;DHT22;68636;52.704;6.536;2023-08-30T01:39:38;12.60;99.90
58339;DHT22;68636;52.704;6.536;2023-08-30T01:42:06;12.60;99.90
58339;DHT22;68636;52.704;6.536;2023-08-30T01:44:33;12.50;99.90
58339;DHT22;68636;52.704;6.536;2023-08-30T01:47:00;12.60;99.90
58339;DHT22;68636;52.704;6.536;2023-08-30T01:49:28;12.60;99.90
58339;DHT22;68636;52.704;6.536;2023-08-30T01:51:57;12.50;99.90
58339;DHT22;68636;52.704;6.536;2023-08-30T01:54:24;12.50;99.90
58339;DHT22;68636;52.704;6.536;2023-08-30T01:56:50;12.50;99.90
58339;DHT22;68636;52.704;6.536;2023-08-30T01:59:16;12.50;99.90
58339;DHT22;68636;52.704;6.536;2023-08-30T02:01:42;12.50;99.90
58339;DHT22;68636;52.704;6.536;2023-08-30T02:04:08;12.50;99.90
58339;DHT22;68636;52.704;6.536;2023-08-30T02:07:04;12.50;99.90
58339;DHT22;68636;52.704;6.536;2023-08-30T02:09:54;12.50;99.90
58339;DHT22;68636;52.704;6.536;2023-08-30T02:12:23;12.50;99.90
58339;DHT22;68636;52.704;6.536;2023-08-30T02:14:51;12.50;99.90
58339;DHT22;68636;52.704;6.536;2023-08-30T02:17:19;12.50;99.90
58339;DHT22;68636;52.704;6.536;2023-08-30T02:19:44;12.40;99.90
58339;DHT22;68636;52.704;6.536;2023-08-30T02:22:11;12.40;99.90
58339;DHT22;68636;52.704;6.536;2023-08-30T02:24:37;12.40;99.90
58339;DHT22;68636;52.704;6.536;2023-08-30T02:27:03;12.30;99.90
58339;DHT22;68636;52.704;6.536;2023-08-30T02:29:29;12.30;99.90
58339;DHT22;68636;52.704;6.536;2023-08-30T02:31:55;12.30;99.90
58339;DHT22;68636;52.704;6.536;2023-08-30T02:34:21;12.30;99.90
58339;DHT22;68636;52.704;6.536;2023-08-30T02:36:46;12.30;99.90
58339;DHT22;68636;52.704;6.536;2023-08-30T02:39:14;12.40;99.90
58339;DHT22;68636;52.704;6.536;2023-08-30T02:41:41;12.40;99.90
58339;DHT22;68636;52.704;6.536;2023-08-30T02:44:11;12.40;99.90
58339;DHT22;68636;52.704;6.536;2023-08-30T02:46:37;12.50;99.90
58339;DHT22;68636;52.704;6.536;2023-08-30T02:49:03;12.50;99.90
58339;DHT22;68636;52.704;6.536;2023-08-30T02:51:29;12.50;99.90
58339;DHT22;68636;52.704;6.536;2023-08-30T02:53:54;12.50;99.90
58339;DHT22;68636;52.704;6.536;2023-08-30T02:56:20;12.40;99.90
58339;DHT22;68636;52.704;6.536;2023-08-30T02:58:46;12.40;99.90
58339;DHT22;68636;52.704;6.536;2023-08-30T03:01:12;12.30;99.90
58339;DHT22;68636;52.704;6.536;2023-08-30T03:03:37;12.20;99.90
58339;DHT22;68636;52.704;6.536;2023-08-30T03:06:03;12.20;99.90
58339;DHT22;68636;52.704;6.536;2023-08-30T03:08:29;12.10;99.90
58339;DHT22;68636;52.704;6.536;2023-08-30T03:10:55;12.10;99.90
58339;DHT22;68636;52.704;6.536;2023-08-30T03:13:20;12.00;99.90
58339;DHT22;68636;52.704;6.536;2023-08-30T03:15:46;11.90;99.90
58339;DHT22;68636;52.704;6.536;2023-08-30T03:18:12;11.90;99.90
58339;DHT22;68636;52.704;6.536;2023-08-30T03:20:37;11.90;99.90
58339;DHT22;68636;52.704;6.536;2023-08-30T03:23:03;11.90;99.90
58339;DHT22;68636;52.704;6.536;2023-08-30T03:25:29;11.80;99.90
58339;DHT22;68636;52.704;6.536;2023-08-30T03:27:56;11.80;99.90
58339;DHT22;68636;52.704;6.536;2023-08-30T03:30:21;11.80;99.90
58339;DHT22;68636;52.704;6.536;2023-08-30T03:32:47;11.80;99.90
58339;DHT22;68636;52.704;6.536;2023-08-30T03:35:13;11.80;99.90
58339;DHT22;68636;52.704;6.536;2023-08-30T03:37:40;11.80;99.90
58339;DHT22;68636;52.704;6.536;2023-08-30T03:40:06;11.80;99.90
58339;DHT22;68636;52.704;6.536;2023-08-30T03:42:32;11.80;99.90
58339;DHT22;68636;52.704;6.536;2023-08-30T03:44:58;11.80;99.90
58339;DHT22;68636;52.704;6.536;2023-08-30T03:47:24;11.90;99.90
58339;DHT22;68636;52.704;6.536;2023-08-30T03:49:50;11.90;99.90
58339;DHT22;68636;52.704;6.536;2023-08-30T03:52:15;11.90;99.90
58339;DHT22;68636;52.704;6.536;2023-08-30T03:54:41;11.80;99.90
58339;DHT22;68636;52.704;6.536;2023-08-30T03:57:07;11.90;99.90
58339;DHT22;68636;52.704;6.536;2023-08-30T03:59:32;11.80;99.90
58339;DHT22;68636;52.704;6.536;2023-08-30T04:01:58;11.80;99.90
58339;DHT22;68636;52.704;6.536;2023-08-30T04:04:24;11.80;99.90
58339;DHT22;68636;52.704;6.536;2023-08-30T04:06:50;11.80;99.90
58339;DHT22;68636;52.704;6.536;2023-08-30T04:09:16;11.80;99.90
58339;DHT22;68636;52.704;6.536;2023-08-30T04:11:42;11.70;99.90
58339;DHT22;68636;52.704;6.536;2023-08-30T04:14:08;11.70;99.90
58339;DHT22;68636;52.704;6.536;2023-08-30T04:16:33;11.70;99.90
58339;DHT22;68636;52.704;6.536;2023-08-30T04:18:59;11.70;99.90
58339;DHT22;68636;52.704;6.536;2023-08-30T04:21:25;11.70;99.90
58339;DHT22;68636;52.704;6.536;2023-08-30T04:23:50;11.60;99.90
58339;DHT22;68636;52.704;6.536;2023-08-30T04:26:16;11.70;99.90
58339;DHT22;68636;52.704;6.536;2023-08-30T04:28:42;11.80;99.90
58339;DHT22;68636;52.704;6.536;2023-08-30T04:31:08;11.80;99.90
58339;DHT22;68636;52.704;6.536;2023-08-30T04:33:33;11.80;99.90
58339;DHT22;68636;52.704;6.536;2023-08-30T04:35:59;11.80;99.90
58339;DHT22;68636;52.704;6.536;2023-08-30T04:38:26;11.80;99.90
58339;DHT22;68636;52.704;6.536;2023-08-30T04:40:59;11.90;99.90
58339;DHT22;68636;52.704;6.536;2023-08-30T04:43:25;11.90;99.90
58339;DHT22;68636;52.704;6.536;2023-08-30T04:45:51;12.00;99.90
58339;DHT22;68636;52.704;6.536;2023-08-30T04:48:17;12.00;99.90
58339;DHT22;68636;52.704;6.536;2023-08-30T04:50:42;12.00;99.90
58339;DHT22;68636;52.704;6.536;2023-08-30T04:53:08;12.00;99.90
58339;DHT22;68636;52.704;6.536;2023-08-30T04:55:34;12.10;99.90
58339;DHT22;68636;52.704;6.536;2023-08-30T04:58:00;12.10;99.90
58339;DHT22;68636;52.704;6.536;2023-08-30T05:00:25;12.10;99.90
58339;DHT22;68636;52.704;6.536;2023-08-30T05:02:51;12.20;99.90
58339;DHT22;68636;52.704;6.536;2023-08-30T05:05:17;12.20;99.90
58339;DHT22;68636;52.704;6.536;2023-08-30T05:07:43;12.30;99.90
58339;DHT22;68636;52.704;6.536;2023-08-30T05:10:09;12.30;99.90
58339;DHT22;68636;52.704;6.536;2023-08-30T05:12:35;12.40;99.90
58339;DHT22;68636;52.704;6.536;2023-08-30T05:15:01;12.40;99.90
58339;DHT22;68636;52.704;6.536;2023-08-30T05:17:26;12.40;99.90
58339;DHT22;68636;52.704;6.536;2023-08-30T05:19:54;12.40;99.90
58339;DHT22;68636;52.704;6.536;2023-08-30T05:22:20;12.50;99.90
58339;DHT22;68636;52.704;6.536;2023-08-30T05:24:46;12.50;99.90
58339;DHT22;68636;52.704;6.536;2023-08-30T05:27:11;12.50;99.90
58339;DHT22;68636;52.704;6.536;2023-08-30T05:29:38;12.50;99.90
58339;DHT22;68636;52.704;6.536;2023-08-30T05:32:04;12.50;99.90
58339;DHT22;68636;52.704;6.536;2023-08-30T05:34:30;12.60;99.90
58339;DHT22;68636;52.704;6.536;2023-08-30T05:36:56;12.60;99.90
58339;DHT22;68636;52.704;6.536;2023-08-30T05:39:22;12.70;99.90
58339;DHT22;68636;52.704;6.536;2023-08-30T05:41:48;12.70;99.90
58339;DHT22;68636;52.704;6.536;2023-08-30T05:44:14;12.70;99.90
58339;DHT22;68636;52.704;6.536;2023-08-30T05:46:40;12.80;99.90
58339;DHT22;68636;52.704;6.536;2023-08-30T05:49:05;12.80;99.90
58339;DHT22;68636;52.704;6.536;2023-08-30T05:51:31;12.80;99.90
58339;DHT22;68636;52.704;6.536;2023-08-30T05:53:57;12.90;99.90
58339;DHT22;68636;52.704;6.536;2023-08-30T05:56:23;12.90;99.90
58339;DHT22;68636;52.704;6.536;2023-08-30T05:58:48;13.00;99.90
58339;DHT22;68636;52.704;6.536;2023-08-30T06:01:18;13.00;99.90
58339;DHT22;68636;52.704;6.536;2023-08-30T06:03:44;13.10;99.90
58339;DHT22;68636;52.704;6.536;2023-08-30T06:06:11;13.10;99.90
58339;DHT22;68636;52.704;6.536;2023-08-30T06:08:37;13.20;99.90
58339;DHT22;68636;52.704;6.536;2023-08-30T06:11:03;13.20;99.90
58339;DHT22;68636;52.704;6.536;2023-08-30T06:13:29;13.20;99.90
58339;DHT22;68636;52.704;6.536;2023-08-30T06:15:54;13.30;99.90
58339;DHT22;68636;52.704;6.536;2023-08-30T06:18:20;13.30;99.90
58339;DHT22;68636;52.704;6.536;2023-08-30T06:20:46;13.40;99.90
58339;DHT22;68636;52.704;6.536;2023-08-30T06:23:13;13.40;99.90
58339;DHT22;68636;52.704;6.536;2023-08-30T06:25:39;13.50;99.90
58339;DHT22;68636;52.704;6.536;2023-08-30T06:28:05;13.50;99.90
58339;DHT22;68636;52.704;6.536;2023-08-30T06:30:31;13.50;99.90
58339;DHT22;68636;52.704;6.536;2023-08-30T06:32:57;13.70;99.90
58339;DHT22;68636;52.704;6.536;2023-08-30T06:35:23;13.70;99.90
58339;DHT22;68636;52.704;6.536;2023-08-30T06:37:49;13.80;99.90
58339;DHT22;68636;52.704;6.536;2023-08-30T06:40:15;13.90;99.90
58339;DHT22;68636;52.704;6.536;2023-08-30T06:42:41;14.00;99.90
58339;DHT22;68636;52.704;6.536;2023-08-30T06:45:07;14.10;99.90
58339;DHT22;68636;52.704;6.536;2023-08-30T06:47:33;14.20;99.90
58339;DHT22;68636;52.704;6.536;2023-08-30T06:50:00;14.30;99.90
58339;DHT22;68636;52.704;6.536;2023-08-30T06:52:26;14.30;99.90
58339;DHT22;68636;52.704;6.536;2023-08-30T06:54:52;14.40;99.90
58339;DHT22;68636;52.704;6.536;2023-08-30T06:57:19;14.40;99.90
58339;DHT22;68636;52.704;6.536;2023-08-30T06:59:44;14.40;99.90
58339;DHT22;68636;52.704;6.536;2023-08-30T07:02:10;14.40;99.90
58339;DHT22;68636;52.704;6.536;2023-08-30T07:04:36;14.40;99.90
58339;DHT22;68636;52.704;6.536;2023-08-30T07:07:02;14.40;99.90
58339;DHT22;68636;52.704;6.536;2023-08-30T07:09:28;14.40;99.90
58339;DHT22;68636;52.704;6.536;2023-08-30T07:11:58;14.30;99.90
58339;DHT22;68636;52.704;6.536;2023-08-30T07:14:26;14.40;99.90
58339;DHT22;68636;52.704;6.536;2023-08-30T07:16:52;14.50;99.90
58339;DHT22;68636;52.704;6.536;2023-08-30T07:19:18;14.60;99.90
58339;DHT22;68636;52.704;6.536;2023-08-30T07:21:44;14.70;99.90
58339;DHT22;68636;52.704;6.536;2023-08-30T07:24:11;14.90;99.90
58339;DHT22;68636;52.704;6.536;2023-08-30T07:26:37;15.10;99.90
58339;DHT22;68636;52.704;6.536;2023-08-30T07:29:04;15.30;99.90
58339;DHT22;68636;52.704;6.536;2023-08-30T07:31:31;15.50;99.90
58339;DHT22;68636;52.704;6.536;2023-08-30T07:33:57;15.60;99.90
58339;DHT22;68636;52.704;6.536;2023-08-30T07:36:26;15.70;99.90
58339;DHT22;68636;52.704;6.536;2023-08-30T07:38:52;15.80;99.90
58339;DHT22;68636;52.704;6.536;2023-08-30T07:41:18;16.00;99.90
58339;DHT22;68636;52.704;6.536;2023-08-30T07:43:44;16.10;99.90
58339;DHT22;68636;52.704;6.536;2023-08-30T07:46:11;16.30;99.90
58339;DHT22;68636;52.704;6.536;2023-08-30T07:53:47;16.50;99.90
58339;DHT22;68636;52.704;6.536;2023-08-30T07:56:13;16.70;99.90
58339;DHT22;68636;52.704;6.536;2023-08-30T07:58:40;16.70;99.90
58339;DHT22;68636;52.704;6.536;2023-08-30T08:01:07;16.80;99.90
58339;DHT22;68636;52.704;6.536;2023-08-30T08:03:33;16.80;99.90
58339;DHT22;68636;52.704;6.536;2023-08-30T08:05:59;16.70;99.90
58339;DHT22;68636;52.704;6.536;2023-08-30T08:08:28;16.70;99.90
58339;DHT22;68636;52.704;6.536;2023-08-30T08:10:54;16.80;99.90
58339;DHT22;68636;52.704;6.536;2023-08-30T08:13:20;16.70;99.90
58339;DHT22;68636;52.704;6.536;2023-08-30T08:15:46;16.70;99.90
58339;DHT22;68636;52.704;6.536;2023-08-30T08:18:12;16.50;99.90
58339;DHT22;68636;52.704;6.536;2023-08-30T08:20:37;16.40;99.90
58339;DHT22;68636;52.704;6.536;2023-08-30T08:23:04;16.30;99.90
58339;DHT22;68636;52.704;6.536;2023-08-30T08:25:30;16.40;99.90
58339;DHT22;68636;52.704;6.536;2023-08-30T08:27:56;16.30;99.90
58339;DHT22;68636;52.704;6.536;2023-08-30T08:30:21;16.30;99.90
58339;DHT22;68636;52.704;6.536;2023-08-30T08:32:48;16.30;99.90
58339;DHT22;68636;52.704;6.536;2023-08-30T08:35:14;16.10;99.90
58339;DHT22;68636;52.704;6.536;2023-08-30T08:37:40;16.00;99.90
58339;DHT22;68636;52.704;6.536;2023-08-30T08:40:06;15.90;99.90
58339;DHT22;68636;52.704;6.536;2023-08-30T08:42:34;15.70;99.90
58339;DHT22;68636;52.704;6.536;2023-08-30T08:45:02;15.60;99.90
58339;DHT22;68636;52.704;6.536;2023-08-30T08:47:30;15.50;99.90
58339;DHT22;68636;52.704;6.536;2023-08-30T08:49:56;15.50;99.90
58339;DHT22;68636;52.704;6.536;2023-08-30T08:52:23;15.30;99.90
58339;DHT22;68636;52.704;6.536;2023-08-30T08:54:50;15.30;99.90
58339;DHT22;68636;52.704;6.536;2023-08-30T08:57:16;15.20;99.90
58339;DHT22;68636;52.704;6.536;2023-08-30T08:59:42;15.30;99.90
58339;DHT22;68636;52.704;6.536;2023-08-30T09:02:11;15.30;99.90
58339;DHT22;68636;52.704;6.536;2023-08-30T09:04:39;15.30;99.90
58339;DHT22;68636;52.704;6.536;2023-08-30T09:07:05;15.30;99.90
58339;DHT22;68636;52.704;6.536;2023-08-30T09:09:31;15.30;99.90
58339;DHT22;68636;52.704;6.536;2023-08-30T09:11:58;15.20;99.90
58339;DHT22;68636;52.704;6.536;2023-08-30T09:14:23;15.20;99.90
58339;DHT22;68636;52.704;6.536;2023-08-30T09:19:21;15.10;99.90
58339;DHT22;68636;52.704;6.536;2023-08-30T09:21:58;14.90;99.90
58339;DHT22;68636;52.704;6.536;2023-08-30T09:24:24;15.00;99.90
58339;DHT22;68636;52.704;6.536;2023-08-30T09:26:55;14.90;99.90
58339;DHT22;68636;52.704;6.536;2023-08-30T09:29:21;15.00;99.90
58339;DHT22;68636;52.704;6.536;2023-08-30T09:31:51;15.00;99.90
58339;DHT22;68636;52.704;6.536;2023-08-30T09:34:22;15.00;99.90
58339;DHT22;68636;52.704;6.536;2023-08-30T09:36:48;15.10;99.90
58339;DHT22;68636;52.704;6.536;2023-08-30T09:39:15;15.10;99.90
58339;DHT22;68636;52.704;6.536;2023-08-30T09:41:42;15.20;99.90
58339;DHT22;68636;52.704;6.536;2023-08-30T09:46:55;15.40;99.90
58339;DHT22;68636;52.704;6.536;2023-08-30T09:49:25;15.50;99.90
58339;DHT22;68636;52.704;6.536;2023-08-30T09:51:52;15.60;99.90
58339;DHT22;68636;52.704;6.536;2023-08-30T09:54:18;15.50;99.90
58339;DHT22;68636;52.704;6.536;2023-08-30T09:56:45;15.70;99.90
58339;DHT22;68636;52.704;6.536;2023-08-30T09:59:12;15.80;99.90
58339;DHT22;68636;52.704;6.536;2023-08-30T10:01:39;15.90;99.90
58339;DHT22;68636;52.704;6.536;2023-08-30T10:04:07;16.10;99.90
58339;DHT22;68636;52.704;6.536;2023-08-30T10:06:38;16.10;99.90
58339;DHT22;68636;52.704;6.536;2023-08-30T10:09:05;16.20;99.90
58339;DHT22;68636;52.704;6.536;2023-08-30T10:11:35;16.30;99.90
58339;DHT22;68636;52.704;6.536;2023-08-30T10:14:03;16.40;99.90
58339;DHT22;68636;52.704;6.536;2023-08-30T10:16:33;16.40;99.90
58339;DHT22;68636;52.704;6.536;2023-08-30T10:19:08;16.40;99.90
58339;DHT22;68636;52.704;6.536;2023-08-30T10:21:36;16.30;99.90
58339;DHT22;68636;52.704;6.536;2023-08-30T10:24:05;16.20;99.90
58339;DHT22;68636;52.704;6.536;2023-08-30T10:26:33;16.20;99.90
58339;DHT22;68636;52.704;6.536;2023-08-30T10:29:00;16.20;99.90
58339;DHT22;68636;52.704;6.536;2023-08-30T10:31:27;16.20;99.90
58339;DHT22;68636;52.704;6.536;2023-08-30T10:33:53;16.10;99.90
58339;DHT22;68636;52.704;6.536;2023-08-30T10:36:24;15.90;99.90
58339;DHT22;68636;52.704;6.536;2023-08-30T10:38:54;15.90;99.90
58339;DHT22;68636;52.704;6.536;2023-08-30T10:41:26;15.80;99.90
58339;DHT22;68636;52.704;6.536;2023-08-30T10:43:55;15.80;99.90
58339;DHT22;68636;52.704;6.536;2023-08-30T10:46:34;15.70;99.90
58339;DHT22;68636;52.704;6.536;2023-08-30T10:49:13;15.70;99.90
58339;DHT22;68636;52.704;6.536;2023-08-30T10:51:40;15.70;99.90
58339;DHT22;68636;52.704;6.536;2023-08-30T10:54:14;15.60;99.90
58339;DHT22;68636;52.704;6.536;2023-08-30T10:56:58;15.60;99.90
58339;DHT22;68636;52.704;6.536;2023-08-30T10:59:26;15.50;99.90
58339;DHT22;68636;52.704;6.536;2023-08-30T11:01:53;15.40;99.90
58339;DHT22;68636;52.704;6.536;2023-08-30T11:04:20;15.40;99.90
58339;DHT22;68636;52.704;6.536;2023-08-30T11:06:49;15.40;99.90
58339;DHT22;68636;52.704;6.536;2023-08-30T11:09:17;15.30;99.90
58339;DHT22;68636;52.704;6.536;2023-08-30T11:11:46;15.40;99.90
58339;DHT22;68636;52.704;6.536;2023-08-30T11:14:13;15.40;99.90
58339;DHT22;68636;52.704;6.536;2023-08-30T11:16:39;15.40;99.90
58339;DHT22;68636;52.704;6.536;2023-08-30T11:19:06;15.30;99.90
58339;DHT22;68636;52.704;6.536;2023-08-30T11:21:32;15.30;99.90
58339;DHT22;68636;52.704;6.536;2023-08-30T11:23:58;15.30;99.90
58339;DHT22;68636;52.704;6.536;2023-08-30T11:26:24;15.40;99.90
58339;DHT22;68636;52.704;6.536;2023-08-30T11:28:50;15.40;99.90
58339;DHT22;68636;52.704;6.536;2023-08-30T11:31:22;15.50;99.90
58339;DHT22;68636;52.704;6.536;2023-08-30T11:33:56;15.40;99.90
58339;DHT22;68636;52.704;6.536;2023-08-30T11:36:24;15.50;99.90
58339;DHT22;68636;52.704;6.536;2023-08-30T11:38:51;15.50;99.90
58339;DHT22;68636;52.704;6.536;2023-08-30T11:41:17;15.40;99.90
58339;DHT22;68636;52.704;6.536;2023-08-30T11:43:45;15.50;99.90
58339;DHT22;68636;52.704;6.536;2023-08-30T11:46:10;15.50;99.90
58339;DHT22;68636;52.704;6.536;2023-08-30T11:48:41;15.50;99.90
58339;DHT22;68636;52.704;6.536;2023-08-30T11:51:07;15.50;99.90
58339;DHT22;68636;52.704;6.536;2023-08-30T11:53:34;15.40;99.90
58339;DHT22;68636;52.704;6.536;2023-08-30T11:56:00;15.40;99.90
58339;DHT22;68636;52.704;6.536;2023-08-30T11:58:26;15.50;99.90
58339;DHT22;68636;52.704;6.536;2023-08-30T12:00:53;15.40;99.90
58339;DHT22;68636;52.704;6.536;2023-08-30T12:03:22;15.50;99.90
58339;DHT22;68636;52.704;6.536;2023-08-30T12:05:49;15.60;99.90
58339;DHT22;68636;52.704;6.536;2023-08-30T12:08:29;15.60;99.90
58339;DHT22;68636;52.704;6.536;2023-08-30T12:10:56;15.50;99.90
58339;DHT22;68636;52.704;6.536;2023-08-30T12:13:26;15.60;99.90
58339;DHT22;68636;52.704;6.536;2023-08-30T12:15:54;15.60;99.90
58339;DHT22;68636;52.704;6.536;2023-08-30T12:18:20;15.70;99.90
58339;DHT22;68636;52.704;6.536;2023-08-30T12:21:04;15.70;99.90
58339;DHT22;68636;52.704;6.536;2023-08-30T12:23:32;15.70;99.90
58339;DHT22;68636;52.704;6.536;2023-08-30T12:26:09;15.80;99.90
58339;DHT22;68636;52.704;6.536;2023-08-30T12:28:37;15.90;99.90
58339;DHT22;68636;52.704;6.536;2023-08-30T12:31:04;16.10;99.90
58339;DHT22;68636;52.704;6.536;2023-08-30T12:33:30;16.20;99.90
58339;DHT22;68636;52.704;6.536;2023-08-30T12:35:57;16.20;99.90
58339;DHT22;68636;52.704;6.536;2023-08-30T12:38:24;16.30;99.90
58339;DHT22;68636;52.704;6.536;2023-08-30T12:40:52;16.40;99.90
58339;DHT22;68636;52.704;6.536;2023-08-30T12:43:18;16.50;99.90
58339;DHT22;68636;52.704;6.536;2023-08-30T12:45:45;16.50;99.90
58339;DHT22;68636;52.704;6.536;2023-08-30T12:48:12;16.60;99.90
58339;DHT22;68636;52.704;6.536;2023-08-30T12:50:41;16.70;99.90
58339;DHT22;68636;52.704;6.536;2023-08-30T12:53:07;16.70;99.90
58339;DHT22;68636;52.704;6.536;2023-08-30T12:55:33;16.70;99.90
58339;DHT22;68636;52.704;6.536;2023-08-30T12:58:09;16.60;99.90
58339;DHT22;68636;52.704;6.536;2023-08-30T13:00:35;16.50;99.90
58339;DHT22;68636;52.704;6.536;2023-08-30T13:03:01;16.60;99.90
58339;DHT22;68636;52.704;6.536;2023-08-30T13:05:29;16.50;99.90
58339;DHT22;68636;52.704;6.536;2023-08-30T13:07:56;16.40;99.90
58339;DHT22;68636;52.704;6.536;2023-08-30T13:10:21;16.40;99.90
58339;DHT22;68636;52.704;6.536;2023-08-30T13:12:47;16.40;99.90
58339;DHT22;68636;52.704;6.536;2023-08-30T13:15:13;16.30;99.90
58339;DHT22;68636;52.704;6.536;2023-08-30T13:17:38;16.40;99.90
58339;DHT22;68636;52.704;6.536;2023-08-30T13:20:05;16.50;99.90
58339;DHT22;68636;52.704;6.536;2023-08-30T13:22:30;16.70;99.90
58339;DHT22;68636;52.704;6.536;2023-08-30T13:24:56;16.90;99.90
58339;DHT22;68636;52.704;6.536;2023-08-30T13:27:22;17.20;99.90
58339;DHT22;68636;52.704;6.536;2023-08-30T13:29:48;17.50;99.90
58339;DHT22;68636;52.704;6.536;2023-08-30T13:32:14;17.50;99.90
58339;DHT22;68636;52.704;6.536;2023-08-30T13:34:40;17.60;99.90
58339;DHT22;68636;52.704;6.536;2023-08-30T13:37:05;17.80;99.90
58339;DHT22;68636;52.704;6.536;2023-08-30T13:39:31;17.90;99.90
58339;DHT22;68636;52.704;6.536;2023-08-30T13:41:57;18.10;99.90
58339;DHT22;68636;52.704;6.536;2023-08-30T13:44:23;18.30;99.90
58339;DHT22;68636;52.704;6.536;2023-08-30T13:46:50;18.40;99.90
58339;DHT22;68636;52.704;6.536;2023-08-30T13:49:16;18.50;99.90
58339;DHT22;68636;52.704;6.536;2023-08-30T13:51:44;18.60;99.90
58339;DHT22;68636;52.704;6.536;2023-08-30T13:54:10;18.80;99.90
58339;DHT22;68636;52.704;6.536;2023-08-30T13:56:36;18.90;99.90
58339;DHT22;68636;52.704;6.536;2023-08-30T13:59:03;19.00;99.90
58339;DHT22;68636;52.704;6.536;2023-08-30T14:01:32;19.10;99.90
58339;DHT22;68636;52.704;6.536;2023-08-30T14:03:57;19.20;99.90
58339;DHT22;68636;52.704;6.536;2023-08-30T14:06:23;19.20;99.90
58339;DHT22;68636;52.704;6.536;2023-08-30T14:08:49;19.20;99.90
58339;DHT22;68636;52.704;6.536;2023-08-30T14:11:15;18.90;99.90
58339;DHT22;68636;52.704;6.536;2023-08-30T14:13:41;18.70;99.90
58339;DHT22;68636;52.704;6.536;2023-08-30T14:16:07;18.70;99.90
58339;DHT22;68636;52.704;6.536;2023-08-30T14:18:34;18.60;99.90
58339;DHT22;68636;52.704;6.536;2023-08-30T14:21:00;18.60;99.90
58339;DHT22;68636;52.704;6.536;2023-08-30T14:23:26;18.50;99.90
58339;DHT22;68636;52.704;6.536;2023-08-30T14:25:59;18.50;99.90
58339;DHT22;68636;52.704;6.536;2023-08-30T14:28:27;18.10;99.90
58339;DHT22;68636;52.704;6.536;2023-08-30T14:30:53;18.10;99.90
58339;DHT22;68636;52.704;6.536;2023-08-30T14:33:19;18.30;99.90
58339;DHT22;68636;52.704;6.536;2023-08-30T14:35:45;18.30;99.90
58339;DHT22;68636;52.704;6.536;2023-08-30T14:38:11;18.50;99.90
58339;DHT22;68636;52.704;6.536;2023-08-30T14:40:37;18.40;99.90
58339;DHT22;68636;52.704;6.536;2023-08-30T14:43:06;18.40;99.90
58339;DHT22;68636;52.704;6.536;2023-08-30T14:45:31;18.30;99.90
58339;DHT22;68636;52.704;6.536;2023-08-30T14:47:58;18.30;99.90
58339;DHT22;68636;52.704;6.536;2023-08-30T14:50:24;18.10;99.90
58339;DHT22;68636;52.704;6.536;2023-08-30T14:52:50;18.00;99.90
58339;DHT22;68636;52.704;6.536;2023-08-30T14:55:20;17.80;99.90
58339;DHT22;68636;52.704;6.536;2023-08-30T14:57:46;17.60;99.90
58339;DHT22;68636;52.704;6.536;2023-08-30T15:00:12;17.60;99.90
58339;DHT22;68636;52.704;6.536;2023-08-30T15:02:38;17.60;99.90
58339;DHT22;68636;52.704;6.536;2023-08-30T15:05:04;17.30;99.90
58339;DHT22;68636;52.704;6.536;2023-08-30T15:07:29;17.30;99.90
58339;DHT22;68636;52.704;6.536;2023-08-30T15:09:55;17.30;99.90
58339;DHT22;68636;52.704;6.536;2023-08-30T15:12:21;17.30;99.90
58339;DHT22;68636;52.704;6.536;2023-08-30T15:14:46;17.20;99.90
58339;DHT22;68636;52.704;6.536;2023-08-30T15:17:14;17.20;99.90
58339;DHT22;68636;52.704;6.536;2023-08-30T15:19:40;17.30;99.90
58339;DHT22;68636;52.704;6.536;2023-08-30T15:22:05;17.40;99.90
58339;DHT22;68636;52.704;6.536;2023-08-30T15:24:31;17.50;99.90
58339;DHT22;68636;52.704;6.536;2023-08-30T15:26:57;17.60;99.90
58339;DHT22;68636;52.704;6.536;2023-08-30T15:29:22;17.60;99.90
58339;DHT22;68636;52.704;6.536;2023-08-30T15:31:48;17.60;99.90
58339;DHT22;68636;52.704;6.536;2023-08-30T15:34:18;17.50;99.90
58339;DHT22;68636;52.704;6.536;2023-08-30T15:36:44;17.40;99.90
58339;DHT22;68636;52.704;6.536;2023-08-30T15:39:13;17.40;99.90
58339;DHT22;68636;52.704;6.536;2023-08-30T15:41:41;17.60;99.90